Time;durP1;ratioP1;P1;durP2;ratioP2;P2;SDS_P1;SDS_P2;PMS_P1;PMS_P2;Temp;Humidity;BMP_temperature;BMP_pressure;BME280_temperature;BME280_humidity;BME280_pressure;Samples;Min_cycle;Max_cycle;Signal;HPM_P1;HPM_P2
2022/02/12 00:01:58;;;;;;;1.17;0.60;;;0.50;85.00;;;;;;6183004;23;20005;-73
2022/02/12 00:04:23;;;;;;;1.33;0.63;;;0.40;84.90;;;;;;6157503;23;20013;-73
2022/02/12 00:06:49;;;;;;;0.70;0.40;;;0.50;85.00;;;;;;6182745;23;20060;-73
2022/02/12 00:09:15;;;;;;;1.20;0.50;;;0.50;85.00;;;;;;6182584;23;20056;-73
2022/02/12 00:11:41;;;;;;;1.02;0.43;;;0.40;85.00;;;;;;6184023;23;20007;-73
2022/02/12 00:14:06;;;;;;;0.55;0.40;;;0.40;85.10;;;;;;6157429;23;20001;-73
2022/02/12 00:16:32;;;;;;;1.15;0.50;;;0.40;85.20;;;;;;6156936;23;20005;-72
2022/02/12 00:18:58;;;;;;;1.77;0.60;;;0.30;85.20;;;;;;6156163;23;20442;-73
2022/02/12 00:21:24;;;;;;;1.10;0.40;;;0.30;85.40;;;;;;6181937;23;20449;-73
2022/02/12 00:23:50;;;;;;;0.85;0.57;;;0.30;85.30;;;;;;6157347;23;20007;-73
2022/02/12 00:26:16;;;;;;;0.45;0.32;;;0.30;85.30;;;;;;6182002;23;20088;-73
2022/02/12 00:28:42;;;;;;;1.00;0.30;;;0.30;85.20;;;;;;6133026;23;20001;-73
2022/02/12 00:31:10;;;;;;;0.73;0.40;;;0.30;85.20;;;;;;6157109;23;20005;-74
2022/02/12 00:33:36;;;;;;;0.88;0.32;;;0.30;85.30;;;;;;6182090;23;20028;-73
2022/02/12 00:36:02;;;;;;;0.95;0.57;;;0.30;85.30;;;;;;6182221;23;20460;-73
2022/02/12 00:38:28;;;;;;;0.13;0.10;;;0.20;85.30;;;;;;6182191;23;20001;-73
2022/02/12 00:40:54;;;;;;;1.38;0.40;;;0.20;85.40;;;;;;6182824;23;20012;-73
2022/02/12 00:43:19;;;;;;;0.43;0.32;;;0.20;85.40;;;;;;6156702;23;19993;-73
2022/02/12 00:45:48;;;;;;;1.85;0.73;;;0.20;85.50;;;;;;6157044;23;20009;-73
2022/02/12 00:48:13;;;;;;;1.45;0.43;;;0.20;85.50;;;;;;6157464;23;20008;-73
2022/02/12 00:50:39;;;;;;;0.45;0.40;;;0.10;85.50;;;;;;6181603;23;20005;-73
2022/02/12 00:53:05;;;;;;;0.57;0.43;;;0.00;85.50;;;;;;6157063;23;20009;-74
2022/02/12 00:55:31;;;;;;;0.57;0.50;;;0.10;85.60;;;;;;6181492;23;20005;-73
2022/02/12 00:57:56;;;;;;;0.90;0.43;;;0.10;85.60;;;;;;6155871;23;20010;-74
2022/02/12 01:00:22;;;;;;;2.83;0.60;;;0.10;85.50;;;;;;6181534;23;20013;-74
2022/02/12 01:02:48;;;;;;;0.35;0.30;;;0.00;85.50;;;;;;6181449;23;20381;-73
2022/02/12 01:05:14;;;;;;;0.80;0.40;;;0.10;85.60;;;;;;6181704;23;20544;-73
2022/02/12 01:07:39;;;;;;;0.40;0.28;;;0.00;85.60;;;;;;6155779;23;20055;-73
2022/02/12 01:10:07;;;;;;;0.40;0.40;;;0.00;85.70;;;;;;6183623;23;20060;-73
2022/02/12 01:12:33;;;;;;;1.80;0.70;;;0.00;85.80;;;;;;6182945;23;20008;-74
2022/02/12 01:14:59;;;;;;;2.38;0.70;;;0.00;85.80;;;;;;6187808;23;20009;-74
2022/02/12 01:17:26;;;;;;;0.57;0.40;;;-0.10;85.80;;;;;;6181506;23;20071;-73
2022/02/12 01:19:52;;;;;;;1.02;0.57;;;-0.10;85.80;;;;;;6180018;23;20013;-73
2022/02/12 01:22:19;;;;;;;1.00;0.75;;;-0.10;85.90;;;;;;6156747;23;20464;-72
2022/02/12 01:24:47;;;;;;;0.45;0.30;;;-0.10;85.90;;;;;;6157166;23;20437;-73
2022/02/12 01:27:13;;;;;;;0.95;0.55;;;-0.20;85.90;;;;;;6181645;23;20337;-73
2022/02/12 01:29:39;;;;;;;1.00;0.40;;;-0.20;85.90;;;;;;6181951;23;20005;-73
2022/02/12 01:32:05;;;;;;;0.50;0.30;;;-0.20;86.00;;;;;;6157212;23;20001;-73
2022/02/12 01:34:33;;;;;;;0.55;0.50;;;-0.20;86.00;;;;;;6181736;23;20088;-73
2022/02/12 01:37:00;;;;;;;2.08;0.50;;;-0.20;86.00;;;;;;6181351;23;20005;-73
2022/02/12 01:39:26;;;;;;;0.57;0.40;;;-0.20;86.10;;;;;;6182929;23;20322;-73
2022/02/12 01:41:53;;;;;;;0.75;0.45;;;-0.20;86.10;;;;;;6183118;23;20001;-73
2022/02/12 01:44:28;;;;;;;2.05;0.43;;;-0.20;86.10;;;;;;6183406;23;20005;-73
2022/02/12 01:46:54;;;;;;;0.73;0.50;;;-0.30;86.00;;;;;;6183481;23;20067;-73
2022/02/12 01:49:19;;;;;;;0.80;0.50;;;-0.20;86.10;;;;;;6181590;23;20310;-73
2022/02/12 01:51:45;;;;;;;1.85;0.57;;;-0.20;86.10;;;;;;6182943;23;20426;-73
2022/02/12 01:54:11;;;;;;;0.32;0.22;;;-0.30;86.10;;;;;;6182831;23;20012;-72
2022/02/12 01:56:38;;;;;;;0.60;0.40;;;-0.20;86.10;;;;;;6182196;23;20323;-73
2022/02/12 01:59:04;;;;;;;1.15;0.30;;;-0.20;86.10;;;;;;6155708;23;20009;-73
2022/02/12 02:01:30;;;;;;;1.00;0.43;;;-0.30;86.10;;;;;;6182614;23;20001;-73
2022/02/12 02:03:57;;;;;;;2.83;0.52;;;-0.30;86.10;;;;;;6184204;23;20009;-73
2022/02/12 02:06:23;;;;;;;1.77;0.40;;;-0.30;86.20;;;;;;6182907;23;20104;-73
2022/02/12 02:08:48;;;;;;;0.95;0.50;;;-0.30;86.20;;;;;;6182803;23;20065;-73
2022/02/12 02:11:15;;;;;;;0.40;0.40;;;-0.40;86.20;;;;;;6182764;23;20029;-73
2022/02/12 02:13:42;;;;;;;0.60;0.45;;;-0.40;86.30;;;;;;6184568;23;20009;-73
2022/02/12 02:16:15;;;;;;;1.08;0.30;;;-0.40;87.00;;;;;;6184399;23;20368;-72
2022/02/12 02:18:41;;;;;;;0.60;0.30;;;-0.40;86.40;;;;;;6184901;23;20001;-73
2022/02/12 02:21:07;;;;;;;1.05;0.52;;;-0.40;86.40;;;;;;6179898;23;20516;-73
2022/02/12 02:23:35;;;;;;;0.85;0.50;;;-0.50;86.40;;;;;;6183138;23;19997;-72
2022/02/12 02:26:03;;;;;;;0.57;0.32;;;-0.40;86.50;;;;;;6183922;23;20787;-73
2022/02/12 02:28:29;;;;;;;0.85;0.43;;;-0.40;86.40;;;;;;6184958;23;20005;-73
2022/02/12 02:30:54;;;;;;;1.58;0.55;;;-0.40;86.40;;;;;;6184771;23;20420;-73
2022/02/12 02:33:20;;;;;;;0.90;0.30;;;-0.40;86.40;;;;;;6157554;23;20006;-73
2022/02/12 02:35:47;;;;;;;0.25;0.25;;;-0.50;86.40;;;;;;6182891;23;20009;-73
2022/02/12 02:38:14;;;;;;;0.30;0.30;;;-0.50;86.50;;;;;;6184479;23;20017;-73
2022/02/12 02:40:42;;;;;;;0.70;0.40;;;-0.50;86.50;;;;;;6181552;23;20004;-73
2022/02/12 02:43:09;;;;;;;0.68;0.32;;;-0.50;86.50;;;;;;6184122;23;20910;-72
2022/02/12 02:45:35;;;;;;;1.48;0.30;;;-0.50;86.50;;;;;;6182476;23;20009;-72
2022/02/12 02:48:04;;;;;;;1.10;0.35;;;-0.50;86.60;;;;;;6184603;23;20005;-73
2022/02/12 02:56:05;;;;;;;1.10;0.52;;;-0.60;86.60;;;;;;6181256;23;20120;-73
2022/02/12 02:58:34;;;;;;;0.40;0.40;;;-0.50;86.60;;;;;;6184042;23;20013;-72
2022/02/12 03:01:03;;;;;;;0.98;0.43;;;-0.50;86.60;;;;;;6182532;23;20001;-73
2022/02/12 03:03:29;;;;;;;0.52;0.40;;;-0.60;86.60;;;;;;6184062;23;20005;-73
2022/02/12 03:05:57;;;;;;;0.40;0.38;;;-0.60;86.60;;;;;;6184509;23;20021;-73
2022/02/12 03:08:23;;;;;;;0.50;0.40;;;-0.60;86.60;;;;;;6179298;23;20378;-73
2022/02/12 03:10:48;;;;;;;0.47;0.38;;;-0.60;86.70;;;;;;6180511;23;20056;-73
2022/02/12 03:13:14;;;;;;;0.75;0.52;;;-0.70;86.70;;;;;;6184518;23;20012;-73
2022/02/12 03:15:40;;;;;;;0.70;0.30;;;-0.70;86.80;;;;;;6184287;23;20359;-73
2022/02/12 03:18:06;;;;;;;0.40;0.30;;;-0.70;86.80;;;;;;6184334;23;20315;-73
2022/02/12 03:20:33;;;;;;;2.60;0.82;;;-0.60;86.80;;;;;;6182404;23;20009;-72
2022/02/12 03:22:59;;;;;;;0.93;0.40;;;-0.60;86.80;;;;;;6183887;23;20005;-73
2022/02/12 03:25:25;;;;;;;1.35;0.32;;;-0.70;86.80;;;;;;6184172;23;20009;-73
2022/02/12 03:27:57;;;;;;;0.88;0.50;;;-0.70;86.90;;;;;;6184534;23;20099;-73
2022/02/12 03:30:24;;;;;;;1.25;0.60;;;-0.70;86.90;;;;;;6182392;23;20013;-73
2022/02/12 03:32:50;;;;;;;0.63;0.30;;;-0.70;86.90;;;;;;6184304;23;20425;-73
2022/02/12 03:35:16;;;;;;;1.75;0.30;;;-0.70;87.00;;;;;;6184507;23;20039;-73
2022/02/12 03:37:43;;;;;;;0.82;0.45;;;-0.70;86.90;;;;;;6184004;23;20008;-73
2022/02/12 03:40:10;;;;;;;1.33;0.50;;;-0.70;87.00;;;;;;6184039;23;20083;-74
2022/02/12 03:42:36;;;;;;;1.35;0.25;;;-0.70;87.00;;;;;;6182059;23;20341;-73
2022/02/12 03:45:03;;;;;;;2.08;0.57;;;-0.70;87.10;;;;;;6183756;23;20005;-73
2022/02/12 03:47:29;;;;;;;2.53;0.80;;;-0.70;87.00;;;;;;6183810;23;19998;-73
2022/02/12 03:49:54;;;;;;;0.47;0.30;;;-0.70;87.00;;;;;;6184437;23;20303;-73
2022/02/12 03:52:20;;;;;;;0.32;0.32;;;-0.70;87.00;;;;;;6184074;23;20390;-73
2022/02/12 03:54:45;;;;;;;1.80;0.60;;;-0.70;87.00;;;;;;6183804;23;20008;-74
2022/02/12 03:57:11;;;;;;;0.80;0.40;;;-0.70;87.00;;;;;;6184344;23;20009;-73
2022/02/12 03:59:37;;;;;;;1.55;0.40;;;-0.70;87.00;;;;;;6158536;23;20024;-73
2022/02/12 04:02:03;;;;;;;0.65;0.25;;;-0.80;87.00;;;;;;6184687;23;20005;-73
2022/02/12 04:04:29;;;;;;;1.08;0.30;;;-0.80;87.10;;;;;;6184035;23;20104;-73
2022/02/12 04:06:55;;;;;;;0.63;0.30;;;-0.80;87.10;;;;;;6158108;23;20032;-73
2022/02/12 04:09:20;;;;;;;0.93;0.40;;;-0.80;87.10;;;;;;6184060;23;20325;-73
2022/02/12 04:11:46;;;;;;;1.38;0.17;;;-0.80;87.20;;;;;;6157642;23;20009;-73
2022/02/12 04:14:12;;;;;;;0.30;0.20;;;-0.80;87.20;;;;;;6184156;23;20418;-73
2022/02/12 04:16:37;;;;;;;0.57;0.38;;;-0.80;87.20;;;;;;6156373;23;20071;-73
2022/02/12 04:19:03;;;;;;;0.13;0.10;;;-0.80;87.80;;;;;;6183144;23;20006;-72
2022/02/12 04:21:30;;;;;;;1.88;0.30;;;-0.80;87.20;;;;;;6183695;23;20001;-73
2022/02/12 04:23:55;;;;;;;1.17;0.22;;;-0.80;87.30;;;;;;6183616;23;20008;-73
2022/02/12 04:26:21;;;;;;;0.45;0.40;;;-0.90;87.20;;;;;;6183365;23;20005;-73
2022/02/12 04:28:47;;;;;;;0.77;0.38;;;-0.90;87.30;;;;;;6181959;23;20001;-72
2022/02/12 04:31:12;;;;;;;0.70;0.30;;;-0.90;87.30;;;;;;6182199;23;20020;-73
2022/02/12 04:33:38;;;;;;;0.73;0.30;;;-0.90;87.40;;;;;;6183288;23;20076;-73
2022/02/12 04:36:04;;;;;;;1.70;0.43;;;-0.90;87.40;;;;;;6181797;23;20100;-73
2022/02/12 04:38:30;;;;;;;2.15;0.30;;;-0.90;87.40;;;;;;6181656;23;20008;-73
2022/02/12 04:40:55;;;;;;;0.68;0.30;;;-0.90;87.40;;;;;;6183318;23;20016;-73
2022/02/12 04:43:21;;;;;;;0.70;0.30;;;-0.90;87.40;;;;;;6183417;23;20132;-73
2022/02/12 04:45:47;;;;;;;1.17;0.30;;;-0.90;87.30;;;;;;6179535;23;20316;-73
2022/02/12 04:48:13;;;;;;;0.20;0.20;;;-0.90;87.30;;;;;;6155603;23;20434;-73
2022/02/12 04:50:38;;;;;;;0.55;0.30;;;-0.90;87.30;;;;;;6183477;23;20024;-73
2022/02/12 04:53:04;;;;;;;0.30;0.10;;;-0.80;87.30;;;;;;6183559;23;19997;-73
2022/02/12 04:55:30;;;;;;;0.80;0.40;;;-0.80;87.30;;;;;;6182136;23;20610;-72
2022/02/12 04:57:56;;;;;;;0.20;0.20;;;-0.90;87.30;;;;;;6181475;23;20005;-73
2022/02/12 05:00:21;;;;;;;0.88;0.30;;;-0.80;87.40;;;;;;6156569;23;20009;-72
2022/02/12 05:02:47;;;;;;;0.63;0.25;;;-0.80;87.30;;;;;;6181893;23;20001;-73
2022/02/12 05:05:13;;;;;;;0.28;0.20;;;-0.70;87.30;;;;;;6183973;23;20013;-73
2022/02/12 05:07:40;;;;;;;0.30;0.30;;;-0.80;87.20;;;;;;6184038;23;20020;-72
2022/02/12 05:10:08;;;;;;;0.77;0.40;;;-0.80;87.20;;;;;;6184218;23;19998;-72
2022/02/12 05:12:34;;;;;;;0.52;0.30;;;-0.80;87.20;;;;;;6181802;23;19997;-73
2022/02/12 05:15:00;;;;;;;0.40;0.30;;;-0.80;87.30;;;;;;6183673;23;20005;-73
2022/02/12 05:17:26;;;;;;;0.20;0.20;;;-0.80;87.30;;;;;;6182700;23;20008;-73
2022/02/12 05:19:52;;;;;;;0.63;0.30;;;-0.80;87.30;;;;;;6183395;23;20001;-73
2022/02/12 05:22:18;;;;;;;0.45;0.20;;;-0.80;87.30;;;;;;6181975;23;20665;-73
2022/02/12 05:24:44;;;;;;;0.25;0.20;;;-0.70;87.30;;;;;;6183542;23;20329;-74
2022/02/12 05:27:10;;;;;;;0.73;0.30;;;-0.70;87.30;;;;;;6183950;23;20012;-73
2022/02/12 05:29:36;;;;;;;0.28;0.20;;;-0.80;87.20;;;;;;6183139;23;20071;-72
2022/02/12 05:32:02;;;;;;;0.57;0.30;;;-0.70;87.30;;;;;;6185484;23;19997;-72
2022/02/12 05:34:28;;;;;;;0.68;0.40;;;-0.80;87.20;;;;;;6183364;23;20008;-73
2022/02/12 05:36:54;;;;;;;0.10;0.10;;;-0.70;87.30;;;;;;6185240;23;20001;-73
2022/02/12 05:39:20;;;;;;;0.35;0.20;;;-0.80;87.30;;;;;;6185175;23;20013;-73
2022/02/12 05:41:46;;;;;;;0.50;0.30;;;-0.70;87.40;;;;;;6185551;23;20039;-73
2022/02/12 05:44:12;;;;;;;0.77;0.30;;;-0.70;87.30;;;;;;6185366;23;20433;-73
2022/02/12 05:46:38;;;;;;;0.22;0.20;;;-0.70;87.30;;;;;;6183745;23;20005;-73
2022/02/12 05:49:05;;;;;;;0.20;0.20;;;-0.70;87.30;;;;;;6158524;23;20083;-73
2022/02/12 05:51:31;;;;;;;0.40;0.20;;;-0.70;87.30;;;;;;6184939;23;20005;-73
2022/02/12 05:53:59;;;;;;;0.10;0.10;;;-0.70;87.30;;;;;;6158266;23;20418;-73
2022/02/12 05:56:25;;;;;;;0.10;0.10;;;-0.70;87.30;;;;;;6184394;23;20008;-73
2022/02/12 05:58:51;;;;;;;0.70;0.38;;;-0.70;87.30;;;;;;6184214;23;20001;-73
2022/02/12 06:01:16;;;;;;;0.20;0.20;;;-0.70;87.30;;;;;;6184344;23;20024;-73
2022/02/12 06:03:42;;;;;;;0.35;0.17;;;-0.70;87.30;;;;;;6184429;23;19993;-73
2022/02/12 06:06:08;;;;;;;0.20;0.13;;;-0.70;87.40;;;;;;6184335;23;20005;-73
2022/02/12 06:08:33;;;;;;;0.80;0.30;;;-0.70;87.40;;;;;;6184735;23;20016;-73
2022/02/12 06:11:01;;;;;;;0.32;0.22;;;-0.70;87.40;;;;;;6184472;23;19997;-73
2022/02/12 06:13:27;;;;;;;0.28;0.20;;;-0.60;87.40;;;;;;6182851;23;20127;-73
2022/02/12 06:15:53;;;;;;;0.22;0.22;;;-0.70;87.30;;;;;;6182752;23;20467;-73
2022/02/12 06:18:19;;;;;;;0.40;0.20;;;-0.70;87.40;;;;;;6182592;23;20013;-73
2022/02/12 06:20:44;;;;;;;0.65;0.32;;;-0.70;87.70;;;;;;6184367;23;20036;-73
2022/02/12 06:23:10;;;;;;;0.88;0.30;;;-0.60;87.50;;;;;;6182478;23;20441;-74
2022/02/12 06:25:36;;;;;;;0.35;0.28;;;-0.70;87.40;;;;;;6184530;23;20343;-74
2022/02/12 06:28:02;;;;;;;0.30;0.20;;;-0.70;87.40;;;;;;6183793;23;20011;-73
2022/02/12 06:30:28;;;;;;;0.85;0.30;;;-0.60;87.50;;;;;;6182494;23;20001;-74
2022/02/12 06:32:59;;;;;;;0.60;0.40;;;-0.60;87.40;;;;;;6132983;23;20004;-74
2022/02/12 06:35:27;;;;;;;0.20;0.20;;;-0.60;87.50;;;;;;6155807;23;20016;-73
2022/02/12 06:37:55;;;;;;;0.50;0.28;;;-0.60;87.40;;;;;;6185491;23;20001;-73
2022/02/12 06:40:22;;;;;;;0.77;0.15;;;-0.50;87.50;;;;;;6184726;23;20028;-74
2022/02/12 06:42:49;;;;;;;0.55;0.30;;;-0.60;87.40;;;;;;6182174;23;20083;-74
2022/02/12 06:45:16;;;;;;;0.57;0.30;;;-0.60;87.40;;;;;;6182874;23;20092;-73
2022/02/12 06:47:43;;;;;;;1.10;0.40;;;-0.50;87.50;;;;;;6184232;23;20507;-72
2022/02/12 06:50:09;;;;;;;0.25;0.22;;;-0.50;87.40;;;;;;6184806;23;20063;-73
2022/02/12 06:52:35;;;;;;;0.28;0.20;;;-0.50;87.40;;;;;;6184853;23;20001;-73
2022/02/12 06:55:01;;;;;;;0.73;0.30;;;-0.50;87.40;;;;;;6184484;23;20005;-73
2022/02/12 06:57:26;;;;;;;0.20;0.20;;;-0.40;87.40;;;;;;6182954;23;20001;-73
2022/02/12 06:59:52;;;;;;;0.20;0.20;;;-0.40;87.30;;;;;;6184939;23;20028;-73
2022/02/12 07:02:18;;;;;;;0.32;0.30;;;-0.50;87.20;;;;;;6183709;23;20346;-73
2022/02/12 07:04:45;;;;;;;0.57;0.32;;;-0.50;87.30;;;;;;6184406;23;20010;-73
2022/02/12 07:07:10;;;;;;;0.40;0.20;;;-0.40;87.40;;;;;;6183014;23;20001;-73
2022/02/12 07:09:36;;;;;;;1.08;0.32;;;-0.40;87.40;;;;;;6184371;23;20051;-73
2022/02/12 07:12:02;;;;;;;0.20;0.20;;;-0.40;87.40;;;;;;6182978;23;20001;-73
2022/02/12 07:14:28;;;;;;;0.40;0.30;;;-0.40;87.50;;;;;;6184512;23;20001;-73
2022/02/12 07:16:53;;;;;;;0.40;0.30;;;-0.40;87.50;;;;;;6183900;23;20005;-73
2022/02/12 07:19:19;;;;;;;0.45;0.30;;;-0.40;87.50;;;;;;6180609;23;20029;-73
2022/02/12 07:21:45;;;;;;;1.17;0.52;;;-0.40;87.50;;;;;;6184319;23;20037;-73
2022/02/12 07:24:11;;;;;;;1.75;0.50;;;-0.40;87.40;;;;;;6182804;23;20008;-72
2022/02/12 07:26:36;;;;;;;0.20;0.20;;;-0.40;87.40;;;;;;6184430;23;20012;-73
2022/02/12 07:29:02;;;;;;;1.17;0.30;;;-0.30;87.50;;;;;;6184135;23;19997;-73
2022/02/12 07:31:28;;;;;;;0.70;0.40;;;-0.30;87.50;;;;;;6182473;23;20009;-74
2022/02/12 07:33:54;;;;;;;0.50;0.30;;;-0.30;87.40;;;;;;6182049;23;20076;-73
2022/02/12 07:36:20;;;;;;;0.73;0.40;;;-0.30;87.30;;;;;;6183738;23;20429;-73
2022/02/12 07:38:45;;;;;;;0.85;0.40;;;-0.20;87.40;;;;;;6183504;23;19997;-73
2022/02/12 07:41:16;;;;;;;0.80;0.32;;;-0.20;87.20;;;;;;6184050;23;20440;-73
2022/02/12 07:43:43;;;;;;;0.38;0.30;;;-0.10;87.40;;;;;;6184093;23;20468;-73
2022/02/12 07:46:09;;;;;;;0.55;0.35;;;0.00;87.20;;;;;;6183831;23;20433;-73
2022/02/12 07:48:35;;;;;;;2.05;0.60;;;0.00;86.90;;;;;;6184052;23;20008;-74
2022/02/12 07:51:00;;;;;;;0.80;0.57;;;0.20;87.20;;;;;;6184355;23;20002;-73
2022/02/12 07:53:26;;;;;;;1.02;0.68;;;0.20;86.80;;;;;;6183532;23;20480;-73
2022/02/12 07:55:52;;;;;;;1.13;0.50;;;0.30;86.50;;;;;;6183949;23;20025;-74
2022/02/12 07:58:20;;;;;;;1.00;0.40;;;0.30;86.40;;;;;;6180001;23;20064;-73
2022/02/12 08:00:47;;;;;;;1.17;0.47;;;0.40;86.40;;;;;;6183456;23;20084;-74
2022/02/12 08:03:14;;;;;;;0.45;0.35;;;0.40;86.40;;;;;;6184068;23;20072;-74
2022/02/12 08:05:39;;;;;;;0.70;0.50;;;0.60;86.40;;;;;;6183986;23;20163;-74
2022/02/12 08:08:05;;;;;;;0.82;0.40;;;0.50;86.20;;;;;;6157441;23;20040;-74
2022/02/12 08:13:11;;;;;;;0.82;0.50;;;0.70;86.10;;;;;;6183573;23;20009;-74
2022/02/12 08:15:37;;;;;;;0.43;0.32;;;0.70;86.10;;;;;;6183946;23;20303;-74
2022/02/12 08:18:02;;;;;;;0.82;0.50;;;0.80;86.10;;;;;;6157070;23;20040;-74
2022/02/12 08:20:28;;;;;;;0.68;0.45;;;0.90;86.00;;;;;;6183890;23;20445;-74
2022/02/12 08:22:54;;;;;;;1.40;0.55;;;0.90;85.80;;;;;;6182673;23;20001;-74
2022/02/12 08:25:20;;;;;;;1.98;0.50;;;1.00;85.90;;;;;;6182617;23;20005;-74
2022/02/12 08:27:46;;;;;;;0.50;0.45;;;1.00;85.80;;;;;;6182697;23;20068;-74
2022/02/12 08:30:13;;;;;;;0.80;0.47;;;1.10;85.70;;;;;;6182813;23;20009;-74
2022/02/12 08:32:41;;;;;;;0.55;0.50;;;1.20;85.70;;;;;;6182030;23;20001;-74
2022/02/12 08:35:10;;;;;;;1.35;0.55;;;1.20;85.60;;;;;;6156860;23;20017;-74
2022/02/12 08:37:39;;;;;;;0.55;0.55;;;1.30;85.40;;;;;;6183994;23;20024;-74
2022/02/12 08:40:07;;;;;;;0.82;0.60;;;1.40;85.30;;;;;;6181936;23;20011;-74
2022/02/12 08:42:34;;;;;;;0.60;0.60;;;1.40;85.20;;;;;;6180488;23;20005;-74
2022/02/12 08:45:00;;;;;;;1.08;0.80;;;1.50;85.10;;;;;;6179882;23;20016;-74
2022/02/12 08:47:25;;;;;;;0.73;0.65;;;1.50;85.10;;;;;;6157047;23;20084;-74
2022/02/12 08:49:52;;;;;;;1.30;0.68;;;1.50;85.10;;;;;;6183618;23;20002;-74
2022/02/12 08:52:18;;;;;;;0.95;0.50;;;1.50;85.20;;;;;;6157083;23;20007;-73
2022/02/12 08:54:44;;;;;;;1.15;0.70;;;1.50;85.20;;;;;;6185309;23;20010;-73
2022/02/12 08:57:10;;;;;;;0.77;0.50;;;1.60;85.30;;;;;;6185046;23;20077;-73
2022/02/12 08:59:35;;;;;;;1.25;0.70;;;1.60;85.30;;;;;;6184369;23;20330;-74
2022/02/12 09:02:01;;;;;;;0.68;0.68;;;1.70;85.30;;;;;;6184170;23;20028;-73
2022/02/12 09:04:29;;;;;;;0.70;0.50;;;1.70;85.20;;;;;;6154956;23;20010;-74
2022/02/12 09:06:55;;;;;;;1.55;0.68;;;1.70;85.10;;;;;;6159011;23;20017;-73
2022/02/12 09:09:21;;;;;;;1.42;0.75;;;1.80;85.10;;;;;;6158440;23;20028;-73
2022/02/12 09:11:50;;;;;;;1.48;0.65;;;1.80;85.10;;;;;;6158499;23;20021;-73
2022/02/12 09:14:16;;;;;;;3.03;1.10;;;1.90;85.00;;;;;;6186391;23;20409;-72
2022/02/12 09:16:43;;;;;;;2.40;1.23;;;1.90;84.80;;;;;;6158431;23;20005;-73
2022/02/12 09:19:10;;;;;;;2.50;1.10;;;2.00;84.70;;;;;;6187556;23;20433;-73
2022/02/12 09:21:36;;;;;;;3.28;1.27;;;2.00;85.10;;;;;;6160931;23;20052;-73
2022/02/12 09:24:03;;;;;;;2.17;1.10;;;2.10;84.40;;;;;;6165259;23;20013;-73
2022/02/12 09:26:30;;;;;;;3.25;1.08;;;2.20;84.40;;;;;;6183697;23;20029;-72
2022/02/12 09:28:57;;;;;;;1.90;0.98;;;2.20;84.40;;;;;;6185507;23;20449;-73
2022/02/12 09:31:23;;;;;;;1.90;0.85;;;2.30;84.30;;;;;;6161774;23;20484;-73
2022/02/12 09:33:49;;;;;;;1.13;0.85;;;2.30;84.30;;;;;;6182724;23;20005;-73
2022/02/12 09:36:15;;;;;;;2.60;0.98;;;2.40;84.30;;;;;;6186100;23;20039;-73
2022/02/12 09:38:41;;;;;;;2.20;0.93;;;2.40;84.10;;;;;;6160437;23;20100;-73
2022/02/12 09:41:08;;;;;;;3.83;1.25;;;2.40;84.00;;;;;;6160513;23;20028;-73
2022/02/12 09:43:34;;;;;;;1.55;1.00;;;2.50;83.90;;;;;;6162947;23;20001;-73
2022/02/12 09:46:31;;;;;;;1.73;1.00;;;2.60;83.90;;;;;;6163855;23;20073;-72
2022/02/12 09:48:59;;;;;;;1.67;0.90;;;2.60;83.70;;;;;;6188748;23;20020;-72
2022/02/12 09:51:28;;;;;;;2.72;1.10;;;2.70;83.70;;;;;;6160613;23;19998;-73
2022/02/12 09:53:55;;;;;;;2.05;1.00;;;2.80;83.60;;;;;;6163160;23;20050;-72
2022/02/12 09:56:21;;;;;;;4.07;1.40;;;2.80;83.40;;;;;;6183140;23;20009;-73
2022/02/12 09:58:46;;;;;;;2.55;1.00;;;2.90;83.40;;;;;;6158427;23;20105;-72
2022/02/12 10:01:12;;;;;;;3.10;1.23;;;2.90;83.30;;;;;;6158562;23;20396;-72
2022/02/12 10:03:38;;;;;;;1.75;0.90;;;3.00;83.20;;;;;;6158448;23;20337;-72
2022/02/12 10:06:05;;;;;;;2.65;1.38;;;3.00;83.10;;;;;;6182438;23;20314;-73
2022/02/12 10:08:31;;;;;;;2.45;1.05;;;3.10;83.00;;;;;;6184332;23;20001;-73
2022/02/12 10:10:57;;;;;;;3.50;1.13;;;3.20;82.90;;;;;;6158321;23;20011;-73
2022/02/12 10:13:29;;;;;;;3.40;1.20;;;3.30;83.50;;;;;;6184039;23;20370;-71
2022/02/12 10:15:57;;;;;;;1.48;0.88;;;3.30;82.80;;;;;;6183841;23;20083;-72
2022/02/12 10:18:27;;;;;;;2.88;1.10;;;3.40;82.70;;;;;;6184423;23;20087;-71
2022/02/12 10:20:55;;;;;;;2.80;1.00;;;3.50;82.60;;;;;;6184353;23;20092;-70
2022/02/12 10:23:23;;;;;;;3.50;0.90;;;3.60;82.60;;;;;;6157619;23;20079;-71
2022/02/12 10:26:05;;;;;;;2.95;1.00;;;3.60;82.40;;;;;;6183912;23;20017;-71
2022/02/12 10:28:34;;;;;;;2.25;1.15;;;3.60;82.20;;;;;;6184125;23;20001;-71
2022/02/12 10:31:00;;;;;;;3.20;1.00;;;3.60;82.10;;;;;;6183813;23;20001;-70
2022/02/12 10:33:29;;;;;;;1.80;1.05;;;3.70;82.00;;;;;;6184491;23;20370;-70
2022/02/12 10:35:57;;;;;;;2.95;1.25;;;3.80;81.90;;;;;;6183829;23;20012;-70
2022/02/12 10:38:26;;;;;;;1.40;0.90;;;3.90;81.80;;;;;;6184320;23;20005;-71
2022/02/12 10:41:10;;;;;;;4.57;1.10;;;3.90;81.60;;;;;;6182641;23;20060;-70
2022/02/12 10:43:37;;;;;;;1.75;0.80;;;3.90;81.60;;;;;;6184247;23;20016;-71
2022/02/12 10:46:04;;;;;;;1.40;0.80;;;4.00;81.60;;;;;;6184020;23;20009;-70
2022/02/12 10:48:35;;;;;;;2.33;1.20;;;4.10;81.50;;;;;;6184097;23;20008;-71
2022/02/12 10:51:02;;;;;;;2.87;1.10;;;4.20;81.40;;;;;;6183961;23;20079;-71
2022/02/12 10:53:28;;;;;;;2.88;1.27;;;4.20;81.40;;;;;;6183781;23;19998;-72
2022/02/12 10:55:58;;;;;;;4.45;1.50;;;4.30;81.30;;;;;;6183696;23;20033;-72
2022/02/12 10:58:25;;;;;;;3.40;1.00;;;4.30;81.00;;;;;;6184214;23;20027;-72
2022/02/12 11:00:51;;;;;;;3.60;1.00;;;4.30;81.00;;;;;;6183825;23;20001;-73
2022/02/12 11:03:20;;;;;;;1.40;0.82;;;4.20;81.00;;;;;;6157540;23;20084;-72
2022/02/12 11:05:52;;;;;;;3.10;1.30;;;4.20;81.20;;;;;;6183989;23;20006;-72
2022/02/12 11:08:21;;;;;;;3.90;1.10;;;4.20;81.20;;;;;;6183782;23;20001;-71
2022/02/12 11:10:47;;;;;;;3.53;1.20;;;4.30;81.20;;;;;;6182285;23;20005;-72
2022/02/12 11:13:14;;;;;;;4.78;1.30;;;4.30;81.00;;;;;;6183705;23;20016;-72
2022/02/12 11:15:41;;;;;;;2.67;1.15;;;4.40;80.90;;;;;;6182241;23;20060;-72
2022/02/12 11:18:18;;;;;;;3.40;1.10;;;4.60;80.90;;;;;;6157258;23;20016;-73
2022/02/12 11:20:45;;;;;;;0.82;0.80;;;4.60;80.80;;;;;;6159472;23;20001;-71
2022/02/12 11:23:27;;;;;;;2.05;1.00;;;4.70;80.60;;;;;;6183874;23;20008;-72
2022/02/12 11:25:55;;;;;;;3.10;1.00;;;4.80;80.40;;;;;;6157360;23;20091;-72
2022/02/12 11:28:37;;;;;;;5.00;0.90;;;4.80;80.30;;;;;;6183850;23;20017;-72
2022/02/12 11:31:24;;;;;;;2.40;0.90;;;4.90;80.20;;;;;;6183901;23;20004;-71
2022/02/12 11:34:12;;;;;;;2.70;0.77;;;5.10;80.10;;;;;;6183981;23;20001;-71
2022/02/12 11:36:41;;;;;;;2.65;1.17;;;5.20;79.90;;;;;;6183763;23;20445;-71
2022/02/12 11:39:11;;;;;;;2.17;1.00;;;5.20;79.60;;;;;;6179915;23;20056;-71
2022/02/12 11:41:39;;;;;;;2.67;1.08;;;5.30;79.50;;;;;;6182296;23;20462;-71
2022/02/12 11:44:06;;;;;;;1.75;0.85;;;5.40;79.40;;;;;;6183551;23;20080;-71
2022/02/12 11:47:02;;;;;;;1.98;0.90;;;5.40;79.30;;;;;;6183864;23;20009;-71
2022/02/12 11:49:30;;;;;;;1.25;0.70;;;5.40;79.20;;;;;;6180616;23;20084;-71
2022/02/12 11:51:58;;;;;;;1.90;0.95;;;5.50;79.20;;;;;;6183860;23;20002;-71
2022/02/12 11:54:46;;;;;;;2.53;1.27;;;5.60;79.10;;;;;;6183686;23;20055;-70
2022/02/12 11:57:41;;;;;;;2.55;0.85;;;5.80;78.90;;;;;;6182239;23;20075;-71
2022/02/12 12:00:34;;;;;;;2.58;1.13;;;5.70;78.60;;;;;;6184294;23;20005;-71
2022/02/12 12:03:08;;;;;;;2.13;1.15;;;5.80;78.60;;;;;;6176418;23;20013;-71
2022/02/12 12:05:34;;;;;;;2.65;0.93;;;5.90;78.50;;;;;;6184135;23;20017;-72
2022/02/12 12:08:10;;;;;;;1.30;0.90;;;6.00;78.50;;;;;;6182485;23;20063;-72
2022/02/12 12:10:39;;;;;;;1.65;0.90;;;6.20;78.40;;;;;;6183687;23;20429;-72
2022/02/12 12:13:41;;;;;;;2.88;1.27;;;6.30;78.60;;;;;;6184484;23;20035;-72
2022/02/12 12:16:18;;;;;;;;;;;6.40;77.70;;;;;;6183343;23;20001;-71
2022/02/12 12:18:46;;;;;;;1.67;0.88;;;6.50;77.60;;;;;;6183465;23;20320;-71
2022/02/12 12:21:14;;;;;;;2.60;1.00;;;6.60;77.50;;;;;;6183364;23;20338;-71
2022/02/12 12:23:52;;;;;;;2.95;1.33;;;6.70;77.20;;;;;;6181864;23;20005;-71
2022/02/12 12:26:18;;;;;;;4.22;1.30;;;6.70;76.80;;;;;;6183555;23;20052;-71
2022/02/12 12:30:44;;;;;;;3.17;1.17;;;6.70;76.60;;;;;;6183288;23;20001;-71
2022/02/12 12:31:31;;;;;;;2.38;1.25;;;6.70;76.40;;;;;;6182703;23;20088;-72
2022/02/12 12:34:06;;;;;;;1.40;0.82;;;6.90;76.60;;;;;;6183187;23;20016;-71
2022/02/12 12:36:38;;;;;;;2.38;1.10;;;7.00;76.50;;;;;;6181898;23;20025;-71
2022/02/12 12:39:12;;;;;;;2.83;1.40;;;7.10;76.30;;;;;;6183567;23;20001;-70
2022/02/12 12:41:41;;;;;;;4.03;1.50;;;7.10;75.90;;;;;;6183345;23;20005;-71
2022/02/12 12:44:12;;;;;;;2.88;1.27;;;7.10;75.70;;;;;;6181649;23;20385;-71
2022/02/12 12:46:42;;;;;;;2.63;1.33;;;7.20;75.80;;;;;;6183627;23;20326;-71
2022/02/12 12:49:09;;;;;;;1.60;1.00;;;7.30;75.80;;;;;;6183520;23;20005;-71
2022/02/12 12:51:35;;;;;;;1.55;1.00;;;7.50;75.60;;;;;;6183662;23;19997;-71
2022/02/12 12:54:02;;;;;;;2.42;0.80;;;7.50;75.10;;;;;;6182147;23;20072;-71
2022/02/12 12:56:28;;;;;;;2.58;1.20;;;7.60;75.00;;;;;;6183662;23;20001;-71
2022/02/12 12:59:04;;;;;;;4.20;1.30;;;7.60;74.50;;;;;;6183743;23;20001;-71
2022/02/12 13:01:30;;;;;;;2.65;1.13;;;7.70;74.00;;;;;;6181517;23;20032;-71
2022/02/12 13:03:58;;;;;;;2.38;1.08;;;7.60;73.70;;;;;;6183158;23;20043;-71